Time;durP1;ratioP1;P1;durP2;ratioP2;P2;SDS_P1;SDS_P2;PMS_P1;PMS_P2;Temp;Humidity;BMP_temperature;BMP_pressure;BME280_temperature;BME280_humidity;BME280_pressure;Samples;Min_cycle;Max_cycle;Signal;HPM_P1;HPM_P2
2023/04/05 00:00:42;;;;;;;39.20;22.00;;;;;;;-3.65;71.33;101083.98;102214;281;115031;-53
2023/04/05 00:03:21;;;;;;;39.40;23.30;;;;;;;-3.65;71.50;101083.09;102249;281;93772;-52
2023/04/05 00:06:01;;;;;;;40.20;23.80;;;;;;;-3.70;71.58;101086.02;102253;281;98188;-52
2023/04/05 00:08:38;;;;;;;46.30;24.00;;;;;;;-3.76;71.64;101085.66;102220;281;118292;-53
2023/04/05 00:11:22;;;;;;;39.20;23.40;;;;;;;-3.83;71.71;101083.58;102216;281;106649;-53
2023/04/05 00:13:59;;;;;;;38.30;22.60;;;;;;;-3.84;71.66;101082.21;102166;281;114092;-53
2023/04/05 00:16:41;;;;;;;43.60;21.90;;;;;;;-3.85;71.76;101079.11;102184;281;95196;-56
2023/04/05 00:19:22;;;;;;;43.20;22.90;;;;;;;-3.90;71.92;101075.48;102212;281;97229;-56
2023/04/05 00:21:59;;;;;;;37.70;21.20;;;;;;;-3.90;71.91;101081.47;102169;281;119854;-57
2023/04/05 00:24:37;;;;;;;42.80;22.50;;;;;;;-3.91;71.96;101077.30;102384;280;104144;-57
2023/04/05 00:27:18;;;;;;;40.00;22.30;;;;;;;-3.90;72.14;101076.39;102328;280;114799;-51
2023/04/05 00:29:52;;;;;;;37.20;21.60;;;;;;;-3.90;72.20;101070.42;102346;280;93440;-53
2023/04/05 00:32:30;;;;;;;33.50;20.30;;;;;;;-3.91;72.31;101066.77;102388;280;98576;-59
2023/04/05 00:35:07;;;;;;;36.50;22.60;;;;;;;-3.94;72.27;101063.73;102315;280;119379;-57
2023/04/05 00:37:44;;;;;;;39.10;21.10;;;;;;;-3.96;72.31;101059.28;102374;280;104855;-58
2023/04/05 00:40:20;;;;;;;34.70;21.40;;;;;;;-4.01;72.35;101056.91;102369;280;114145;-56
2023/04/05 00:42:56;;;;;;;34.50;19.20;;;;;;;-4.04;72.55;101054.80;102353;280;95677;-58
2023/04/05 00:45:30;;;;;;;38.30;20.80;;;;;;;-4.08;72.53;101050.94;102367;280;96236;-58
2023/04/05 00:48:11;;;;;;;37.20;20.90;;;;;;;-4.10;72.56;101051.76;102356;280;119433;-57
2023/04/05 00:50:46;;;;;;;35.90;19.10;;;;;;;-4.15;72.62;101052.04;102366;280;106313;-54
2023/04/05 00:53:23;;;;;;;34.20;20.10;;;;;;;-4.20;72.76;101052.29;102353;280;113644;-52
2023/04/05 00:56:01;;;;;;;34.60;19.80;;;;;;;-4.18;72.86;101049.39;102365;280;92967;-53
2023/04/05 00:58:41;;;;;;;37.20;20.80;;;;;;;-4.13;72.90;101049.63;102404;280;96781;-53
2023/04/05 01:01:21;;;;;;;40.50;21.90;;;;;;;-4.07;72.95;101049.85;102358;280;120208;-57
2023/04/05 01:04:04;;;;;;;34.70;19.90;;;;;;;-4.04;72.90;101044.61;102347;280;105768;-56
2023/04/05 01:07:05;;;;;;;34.90;20.40;;;;;;;-4.07;73.00;101040.84;102330;280;114222;-59
2023/04/05 01:09:55;;;;;;;36.10;21.00;;;;;;;-4.15;73.03;101038.33;102346;280;94954;-59
2023/04/05 01:12:35;;;;;;;38.30;21.10;;;;;;;-4.25;73.03;101032.33;102385;280;97192;-58
2023/04/05 01:15:17;;;;;;;42.10;21.90;;;;;;;-4.31;72.97;101033.89;102344;280;116935;-58
2023/04/05 01:18:00;;;;;;;41.00;20.70;;;;;;;-4.39;73.09;101032.18;102351;280;103649;-51
2023/04/05 01:20:52;;;;;;;37.50;21.20;;;;;;;-4.44;73.07;101031.40;102342;280;113343;-54
2023/04/05 01:23:51;;;;;;;43.80;21.10;;;;;;;-4.49;73.26;101027.95;102333;280;96091;-54
2023/04/05 01:27:02;;;;;;;39.80;20.90;;;;;;;-4.52;73.31;101027.21;102392;280;97822;-58
2023/04/05 01:30:07;;;;;;;40.40;23.30;;;;;;;-4.53;73.49;101025.75;102343;280;118709;-58
2023/04/05 01:33:02;;;;;;;39.90;21.70;;;;;;;-4.57;73.62;101022.61;102385;280;105693;-58
2023/04/05 01:35:47;;;;;;;38.80;21.90;;;;;;;-4.61;73.66;101024.20;102375;280;114603;-54
2023/04/05 01:38:32;;;;;;;41.00;21.60;;;;;;;-4.65;73.71;101024.08;102318;280;93521;-53
2023/04/05 01:41:16;;;;;;;40.90;20.30;;;;;;;-4.72;73.76;101026.36;102355;280;97602;-54
2023/04/05 01:43:52;;;;;;;34.30;19.80;;;;;;;-4.75;73.79;101029.50;102319;280;118966;-53
2023/04/05 01:46:36;;;;;;;36.80;19.80;;;;;;;-4.77;73.88;101031.52;102347;280;105115;-52
2023/04/05 01:49:13;;;;;;;39.90;19.60;;;;;;;-4.76;74.03;101031.82;102338;280;113386;-52
2023/04/05 01:51:54;;;;;;;33.20;19.60;;;;;;;-4.72;74.13;101033.90;102378;280;93837;-57
2023/04/05 01:54:28;;;;;;;35.80;20.80;;;;;;;-4.71;74.15;101031.04;102386;280;96056;-57
2023/04/05 01:57:07;;;;;;;36.70;21.60;;;;;;;-4.71;74.31;101033.17;102386;280;119225;-53
2023/04/05 01:59:44;;;;;;;30.60;18.40;;;;;;;-4.74;74.39;101033.84;102381;280;103779;-53
2023/04/05 02:02:18;;;;;;;35.40;19.60;;;;;;;-4.79;74.44;101034.41;102338;280;113139;-54
2023/04/05 02:04:52;;;;;;;34.10;19.20;;;;;;;-4.83;74.51;101031.80;102251;280;94285;-54
2023/04/05 02:07:36;;;;;;;35.90;19.60;;;;;;;-4.88;74.55;101030.31;102193;281;98332;-58
2023/04/05 02:10:14;;;;;;;30.80;18.80;;;;;;;-4.92;74.69;101030.55;102166;281;119816;-58
2023/04/05 02:12:54;;;;;;;32.80;19.80;;;;;;;-4.96;74.76;101030.55;102229;281;105540;-57
2023/04/05 02:15:33;;;;;;;36.30;20.20;;;;;;;-4.97;74.82;101032.18;102156;282;115338;-59
2023/04/05 02:18:20;;;;;;;33.30;19.60;;;;;;;-5.00;75.05;101033.91;102194;281;91407;-59
2023/04/05 02:21:09;;;;;;;32.10;18.10;;;;;;;-5.00;75.02;101033.19;102180;281;97902;-53
2023/04/05 02:23:50;;;;;;;32.70;17.70;;;;;;;-5.00;75.05;101038.66;102215;281;120236;-54
2023/04/05 02:26:31;;;;;;;32.20;18.90;;;;;;;-5.03;75.04;101040.23;102248;280;105499;-54
2023/04/05 02:29:13;;;;;;;32.60;18.40;;;;;;;-5.09;75.20;101039.64;102159;281;114646;-54
2023/04/05 02:31:56;;;;;;;33.20;19.40;;;;;;;-5.12;75.29;101041.20;102195;281;96693;-59
2023/04/05 02:34:37;;;;;;;31.80;18.60;;;;;;;-5.12;75.26;101038.57;102229;280;95905;-58
2023/04/05 02:37:17;;;;;;;33.10;18.00;;;;;;;-5.12;75.37;101037.35;102268;278;119474;-57
2023/04/05 02:40:02;;;;;;;31.80;18.20;;;;;;;-5.11;75.59;101041.48;102220;280;105756;-58
2023/04/05 02:42:43;;;;;;;30.50;18.10;;;;;;;-5.01;75.71;101039.09;102214;281;112896;-58
2023/04/05 02:45:21;;;;;;;32.00;19.00;;;;;;;-4.93;75.77;101037.41;102263;281;93501;-54
2023/04/05 02:47:57;;;;;;;31.60;17.60;;;;;;;-4.87;75.97;101035.19;102210;281;95459;-53
2023/04/05 02:50:31;;;;;;;35.30;19.20;;;;;;;-4.83;76.07;101035.16;102210;280;119143;-53
2023/04/05 02:53:06;;;;;;;33.70;19.20;;;;;;;-4.82;75.93;101032.80;102222;281;104425;-53
2023/04/05 02:55:52;;;;;;;31.30;18.30;;;;;;;-4.80;75.98;101031.48;102206;280;113093;-58
2023/04/05 02:58:32;;;;;;;32.40;17.30;;;;;;;-4.75;76.03;101032.33;102210;280;97290;-58
2023/04/05 03:01:10;;;;;;;31.80;18.10;;;;;;;-4.73;76.05;101029.73;102207;281;96958;-52
2023/04/05 03:03:44;;;;;;;33.60;16.90;;;;;;;-4.69;76.32;101031.31;102198;280;118869;-55
2023/04/05 03:06:19;;;;;;;;;;;;;;;-4.65;76.64;101028.27;102228;280;104425;-58
2023/04/05 03:08:54;;;;;;;32.00;17.70;;;;;;;-4.61;76.61;101022.29;102218;280;113059;-58
2023/04/05 03:11:34;;;;;;;31.30;17.40;;;;;;;-4.61;76.54;101024.92;102211;280;93546;-58
2023/04/05 03:14:15;;;;;;;31.30;18.00;;;;;;;-4.61;76.62;101024.92;102182;280;97489;-58
2023/04/05 03:16:57;;;;;;;32.00;18.40;;;;;;;-4.60;76.70;101025.39;102161;281;118819;-57
2023/04/05 03:19:41;;;;;;;36.60;19.60;;;;;;;-4.58;76.83;101026.67;102233;281;104995;-57
2023/04/05 03:22:17;;;;;;;33.50;18.80;;;;;;;-4.54;76.92;101029.26;102205;281;114872;-53
2023/04/05 03:24:56;;;;;;;31.40;18.50;;;;;;;-4.47;77.14;101027.19;102188;281;94435;-54
2023/04/05 03:27:41;;;;;;;33.60;18.00;;;;;;;-4.38;77.26;101028.81;102220;281;96784;-55
2023/04/05 03:30:27;;;;;;;33.80;19.00;;;;;;;-4.24;77.37;101027.19;102203;281;119523;-54
2023/04/05 03:33:04;;;;;;;28.70;17.40;;;;;;;-4.13;77.50;101028.17;102253;281;104940;-54
2023/04/05 03:35:42;;;;;;;33.30;18.70;;;;;;;-4.05;77.43;101024.27;102254;281;114503;-52
2023/04/05 03:38:27;;;;;;;28.80;17.80;;;;;;;-3.97;77.51;101025.73;102254;281;93331;-51
2023/04/05 03:41:05;;;;;;;33.30;20.00;;;;;;;-3.86;77.60;101030.10;102221;281;97516;-57
2023/04/05 03:43:48;;;;;;;27.60;18.00;;;;;;;-3.80;77.62;101030.25;102212;281;120201;-59
2023/04/05 03:46:30;;;;;;;32.50;18.90;;;;;;;-3.71;77.64;101026.77;102196;281;105970;-56
2023/04/05 03:49:09;;;;;;;31.00;18.70;;;;;;;-3.64;77.64;101027.77;102209;281;115149;-57
2023/04/05 03:51:55;;;;;;;31.50;18.50;;;;;;;-3.54;77.43;101026.54;102137;281;96028;-53
2023/04/05 03:54:34;;;;;;;28.10;18.40;;;;;;;-3.49;77.28;101024.68;102200;281;97993;-54
2023/04/05 03:57:13;;;;;;;28.70;16.60;;;;;;;-3.43;77.34;101024.88;101714;281;763119;-52
2023/04/05 03:59:52;;;;;;;29.10;17.80;;;;;;;-3.39;77.66;101027.48;102236;281;106112;-53
2023/04/05 04:02:28;;;;;;;28.90;17.30;;;;;;;-3.28;77.61;101029.10;102208;281;114354;-57
2023/04/05 04:05:03;;;;;;;28.90;17.40;;;;;;;-3.17;77.61;101027.06;102223;280;94076;-57
2023/04/05 04:07:41;;;;;;;32.00;18.70;;;;;;;-3.08;77.79;101026.69;102267;280;98255;-59
2023/04/05 04:10:26;;;;;;;32.50;19.00;;;;;;;-3.03;77.94;101029.06;102193;280;119346;-58
2023/04/05 04:13:08;;;;;;;29.40;17.80;;;;;;;-2.98;77.79;101027.17;102251;280;106430;-59
2023/04/05 04:15:51;;;;;;;34.10;18.80;;;;;;;-2.90;77.60;101025.70;102221;281;113566;-56
2023/04/05 04:18:29;;;;;;;30.60;18.60;;;;;;;-2.83;77.67;101024.02;102247;280;93991;-57
2023/04/05 04:21:06;;;;;;;33.40;19.10;;;;;;;-2.71;77.78;101026.88;102223;281;98213;-51
2023/04/05 04:23:49;;;;;;;31.20;18.90;;;;;;;-2.66;77.89;101029.18;102205;281;119878;-52
2023/04/05 04:26:28;;;;;;;30.00;18.50;;;;;;;-2.61;77.77;101029.77;102243;281;105238;-52
2023/04/05 04:29:14;;;;;;;32.60;18.90;;;;;;;-2.60;77.70;101033.63;102191;281;113784;-52
2023/04/05 04:31:59;;;;;;;31.60;18.50;;;;;;;-2.60;77.67;101037.63;102214;280;95831;-53
2023/04/05 04:34:43;;;;;;;38.30;20.20;;;;;;;-2.53;77.86;101036.73;102190;281;97295;-52
2023/04/05 04:37:29;;;;;;;35.70;18.90;;;;;;;-2.47;77.89;101037.22;102243;281;120173;-52
2023/04/05 04:40:07;;;;;;;39.20;21.00;;;;;;;-2.38;77.89;101039.70;102212;281;104832;-53
2023/04/05 04:42:45;;;;;;;39.00;20.10;;;;;;;-2.35;77.75;101038.27;102202;281;115217;-54
2023/04/05 04:45:21;;;;;;;38.90;20.50;;;;;;;-2.33;78.01;101037.27;102231;281;93872;-55
2023/04/05 04:47:58;;;;;;;35.30;20.10;;;;;;;-2.29;77.99;101031.07;102179;281;97113;-53
2023/04/05 04:50:43;;;;;;;35.10;19.10;;;;;;;-2.24;77.94;101031.23;102166;281;118538;-57
2023/04/05 04:53:21;;;;;;;36.90;20.00;;;;;;;-2.21;78.02;101032.80;102201;281;105088;-57
2023/04/05 04:55:59;;;;;;;34.60;20.00;;;;;;;-2.15;78.06;101035.28;102207;269;114223;-52
2023/04/05 04:58:34;;;;;;;33.40;19.00;;;;;;;-2.12;78.17;101031.73;102189;281;95902;-52
2023/04/05 05:01:12;;;;;;;36.30;20.00;;;;;;;-2.03;78.25;101028.73;102190;281;97174;-57
2023/04/05 05:03:53;;;;;;;34.50;19.50;;;;;;;-1.94;78.07;101030.45;102162;280;118885;-57
2023/04/05 05:06:30;;;;;;;32.70;19.10;;;;;;;-1.87;78.29;101034.09;102193;280;106065;-58
2023/04/05 05:09:07;;;;;;;37.50;20.50;;;;;;;-1.82;78.32;101036.90;102205;281;114071;-58
2023/04/05 05:11:43;;;;;;;35.00;19.80;;;;;;;-1.75;78.13;101038.77;102237;281;93758;-54
2023/04/05 05:14:22;;;;;;;31.40;19.20;;;;;;;-1.72;78.07;101038.08;102236;281;98025;-54
2023/04/05 05:17:09;;;;;;;32.50;20.10;;;;;;;-1.70;78.07;101042.05;102201;281;119958;-56
2023/04/05 05:19:43;;;;;;;;;;;;;;;-1.62;77.94;101042.39;102237;280;106045;-57
2023/04/05 05:22:25;;;;;;;36.90;20.10;;;;;;;-1.60;77.94;101043.13;102212;280;113083;-54
2023/04/05 05:25:11;;;;;;;37.30;20.40;;;;;;;-1.54;77.78;101043.60;102230;281;95408;-54
2023/04/05 05:27:50;;;;;;;38.90;20.60;;;;;;;-1.44;77.70;101045.45;102225;281;96014;-53
2023/04/05 05:30:30;;;;;;;40.40;21.80;;;;;;;-1.42;77.85;101047.07;102239;280;119819;-54
2023/04/05 05:33:11;;;;;;;43.20;22.50;;;;;;;-1.33;77.65;101049.33;102201;281;105713;-55
2023/04/05 05:35:51;;;;;;;43.20;22.20;;;;;;;-1.30;77.82;101049.34;102195;281;114801;-57
2023/04/05 05:38:31;;;;;;;41.10;22.40;;;;;;;-1.28;77.75;101050.42;102227;280;94002;-57
2023/04/05 05:41:08;;;;;;;43.00;24.10;;;;;;;-1.25;77.77;101055.67;102221;281;96619;-53
2023/04/05 05:43:51;;;;;;;37.70;21.80;;;;;;;-1.22;77.79;101058.12;102229;281;118442;-53
2023/04/05 05:46:35;;;;;;;45.40;22.50;;;;;;;-1.20;77.80;101060.31;102205;281;105023;-53
2023/04/05 05:49:11;;;;;;;39.70;21.70;;;;;;;-1.13;77.74;101065.20;102187;281;113518;-52
2023/04/05 05:51:44;;;;;;;;;;;;;;;-1.10;77.65;101068.02;102236;280;95290;-58
2023/04/05 05:54:19;;;;;;;36.40;21.80;;;;;;;-1.06;77.72;101067.54;102229;281;96154;-58
2023/04/05 05:57:03;;;;;;;35.50;20.20;;;;;;;-0.99;77.66;101062.64;102178;281;119826;-53
2023/04/05 05:59:41;;;;;;;34.70;21.00;;;;;;;-0.89;77.58;101063.61;102211;281;105770;-53
2023/04/05 06:02:26;;;;;;;35.20;19.70;;;;;;;-0.77;77.45;101067.42;102192;281;114299;-53
2023/04/05 06:05:06;;;;;;;34.10;19.80;;;;;;;-0.72;77.26;101072.15;102202;281;93069;-52
2023/04/05 06:07:43;;;;;;;34.90;20.10;;;;;;;-0.67;77.28;101072.73;102266;280;97621;-56
2023/04/05 06:10:20;;;;;;;38.00;21.00;;;;;;;-0.65;77.19;101068.84;102247;281;119829;-57
2023/04/05 06:12:56;;;;;;;39.80;21.10;;;;;;;-0.64;77.14;101068.85;102211;280;105837;-58
2023/04/05 06:15:36;;;;;;;35.90;18.10;;;;;;;-0.62;77.16;101069.20;102243;280;113065;-58
2023/04/05 06:18:13;;;;;;;36.50;19.10;;;;;;;-0.54;77.04;101068.89;102199;280;94718;-58
2023/04/05 06:20:57;;;;;;;37.10;19.30;;;;;;;-0.43;76.79;101069.70;102273;281;95654;-52
2023/04/05 06:23:34;;;;;;;36.20;20.50;;;;;;;-0.35;76.87;101069.14;102205;281;119838;-52
2023/04/05 06:26:26;;;;;;;38.20;20.60;;;;;;;-0.26;76.94;101070.52;102275;281;105513;-52
2023/04/05 06:29:12;;;;;;;35.50;20.50;;;;;;;-0.22;76.69;101069.17;102262;280;113951;-57
2023/04/05 06:31:50;;;;;;;36.70;19.40;;;;;;;-0.14;76.50;101067.73;102216;281;93621;-58
2023/04/05 06:34:29;;;;;;;38.40;19.30;;;;;;;-0.14;76.43;101071.20;102243;280;97670;-57
2023/04/05 06:37:10;;;;;;;34.00;18.90;;;;;;;-0.08;76.44;101075.06;102272;281;119483;-52
2023/04/05 06:39:51;;;;;;;36.30;18.60;;;;;;;-0.04;76.37;101075.89;102208;280;104981;-53
2023/04/05 06:42:32;;;;;;;36.70;18.00;;;;;;;-0.01;76.09;101076.39;102201;281;115227;-55
2023/04/05 06:45:09;;;;;;;31.00;16.40;;;;;;;0.05;75.77;101078.27;102223;281;94791;-54
2023/04/05 06:47:46;;;;;;;30.40;16.50;;;;;;;0.09;75.92;101079.39;102238;281;98512;-57
2023/04/05 06:50:26;;;;;;;30.40;15.60;;;;;;;0.20;75.95;101082.69;102199;280;118377;-57
2023/04/05 06:53:00;;;;;;;32.90;16.20;;;;;;;0.28;75.91;101083.50;102229;281;104489;-58
2023/04/05 06:55:36;;;;;;;28.00;16.30;;;;;;;0.36;75.96;101085.80;102229;281;114519;-57
2023/04/05 06:58:14;;;;;;;35.90;20.00;;;;;;;0.36;75.86;101083.30;102227;281;94160;-56
2023/04/05 07:00:51;;;;;;;40.10;20.20;;;;;;;0.36;75.88;101083.46;102259;280;98487;-56
2023/04/05 07:03:28;;;;;;;38.70;20.30;;;;;;;0.36;75.74;101084.03;102204;280;119414;-56
2023/04/05 07:06:03;;;;;;;36.60;20.20;;;;;;;0.33;75.56;101084.92;102248;281;105833;-56
2023/04/05 07:08:43;;;;;;;38.90;22.40;;;;;;;0.33;75.56;101087.80;102172;270;113699;-56
2023/04/05 07:11:18;;;;;;;40.20;23.30;;;;;;;0.36;75.40;101089.00;102199;280;95207;-52
2023/04/05 07:13:57;;;;;;;37.80;21.70;;;;;;;0.36;75.31;101088.25;102258;280;96067;-52
2023/04/05 07:16:37;;;;;;;37.20;19.80;;;;;;;0.42;75.27;101088.05;102197;280;119895;-57
2023/04/05 07:19:19;;;;;;;31.70;18.00;;;;;;;0.46;75.23;101088.42;102230;281;105187;-59
2023/04/05 07:21:57;;;;;;;27.70;17.00;;;;;;;0.53;75.27;101085.46;102228;281;114836;-53
2023/04/05 07:24:33;;;;;;;29.90;15.70;;;;;;;0.59;75.21;101093.69;102199;281;93306;-57
2023/04/05 07:27:16;;;;;;;25.00;14.80;;;;;;;0.60;75.18;101089.74;102239;281;96850;-53
2023/04/05 07:29:58;;;;;;;23.50;13.40;;;;;;;0.72;74.86;101089.25;102210;281;117668;-53
2023/04/05 07:32:44;;;;;;;23.60;13.10;;;;;;;0.77;74.59;101092.11;102208;281;105203;-54
2023/04/05 07:35:26;;;;;;;24.40;13.00;;;;;;;0.77;74.63;101094.92;102196;281;115082;-58
2023/04/05 07:38:10;;;;;;;25.10;13.10;;;;;;;0.83;74.63;101093.77;102237;281;93470;-58
2023/04/05 07:40:50;;;;;;;23.20;13.30;;;;;;;0.88;74.55;101095.89;102194;281;96884;-59
2023/04/05 07:43:31;;;;;;;23.30;13.70;;;;;;;0.92;74.35;101096.66;102193;281;119408;-58
2023/04/05 07:46:09;;;;;;;28.20;16.10;;;;;;;0.96;74.20;101100.41;102202;281;106016;-53
2023/04/05 07:48:48;;;;;;;25.20;14.00;;;;;;;0.98;74.08;101098.88;102216;281;115333;-54
2023/04/05 07:51:36;;;;;;;23.60;12.60;;;;;;;1.04;74.02;101100.56;102234;281;94768;-52
2023/04/05 07:54:13;;;;;;;21.20;14.00;;;;;;;1.12;73.82;101100.53;102256;281;95776;-53
2023/04/05 07:56:54;;;;;;;22.20;12.60;;;;;;;1.12;73.78;101101.23;102242;281;118658;-58
2023/04/05 07:59:40;;;;;;;25.90;12.00;;;;;;;1.21;73.74;101102.52;102177;281;106128;-57
2023/04/05 08:02:21;;;;;;;18.20;10.60;;;;;;;1.28;73.41;101102.16;102231;280;114396;-59
2023/04/05 08:04:58;;;;;;;22.10;11.50;;;;;;;1.28;73.34;101102.70;102237;281;92414;-60
2023/04/05 08:07:36;;;;;;;17.30;10.80;;;;;;;1.33;73.31;101098.77;102237;281;97411;-59
2023/04/05 08:10:14;;;;;;;15.60;10.40;;;;;;;1.37;73.14;101097.91;102217;281;119302;-55
2023/04/05 08:12:49;;;;;;;14.80;9.30;;;;;;;1.40;72.95;101099.61;102200;281;106269;-57
2023/04/05 08:15:28;;;;;;;18.10;9.70;;;;;;;1.47;72.58;101097.88;102261;280;114003;-57
2023/04/05 08:18:04;;;;;;;19.10;9.40;;;;;;;1.53;72.39;101099.54;102228;281;92659;-57
2023/04/05 08:20:42;;;;;;;18.90;9.80;;;;;;;1.57;72.24;101098.76;102237;281;96496;-53
2023/04/05 08:23:20;;;;;;;17.80;10.70;;;;;;;1.62;72.13;101098.52;102214;281;119148;-53
2023/04/05 08:26:04;;;;;;;19.50;10.00;;;;;;;1.62;72.20;101095.48;102222;281;105252;-57
2023/04/05 08:28:42;;;;;;;15.00;9.40;;;;;;;1.71;72.25;101096.95;102168;281;114764;-57
2023/04/05 08:31:19;;;;;;;17.40;10.00;;;;;;;1.82;72.14;101093.84;102177;281;95350;-53
2023/04/05 08:34:00;;;;;;;17.00;9.70;;;;;;;1.92;72.19;101095.55;102203;281;97473;-54
2023/04/05 08:36:43;;;;;;;15.50;8.40;;;;;;;1.99;72.17;101099.74;102195;281;120171;-56
2023/04/05 08:39:22;;;;;;;16.10;8.40;;;;;;;2.11;71.98;101095.98;102252;281;104863;-53
2023/04/05 08:42:12;;;;;;;16.00;8.60;;;;;;;2.25;71.88;101094.50;102201;281;114303;-58
2023/04/05 08:44:52;;;;;;;14.20;8.90;;;;;;;2.49;71.59;101095.70;102243;281;92866;-59
2023/04/05 08:47:29;;;;;;;16.70;9.20;;;;;;;2.59;71.58;101094.89;102252;281;98401;-57
2023/04/05 08:50:13;;;;;;;12.70;7.90;;;;;;;2.68;71.34;101093.58;102206;281;120656;-57
2023/04/05 08:52:51;;;;;;;14.10;8.30;;;;;;;2.81;71.24;101092.66;102174;281;105199;-58
2023/04/05 08:55:37;;;;;;;17.60;8.90;;;;;;;2.97;71.02;101090.49;102168;281;114983;-59
2023/04/05 08:58:16;;;;;;;11.70;6.60;;;;;;;3.11;70.68;101093.67;102213;280;93491;-54
2023/04/05 09:00:58;;;;;;;10.90;5.90;;;;;;;3.19;70.43;101089.42;102245;281;97408;-59
2023/04/05 09:03:38;;;;;;;10.60;5.40;;;;;;;3.27;69.97;101091.08;102166;281;119588;-59
2023/04/05 09:06:27;;;;;;;8.60;4.90;;;;;;;3.32;69.47;101091.90;102189;281;105595;-54
2023/04/05 09:09:10;;;;;;;9.40;5.40;;;;;;;3.43;69.04;101090.27;102192;280;114831;-53
2023/04/05 09:11:45;;;;;;;10.90;4.90;;;;;;;3.53;68.56;101087.98;102222;280;94945;-53
2023/04/05 09:14:21;;;;;;;7.20;4.50;;;;;;;3.60;68.23;101089.55;102226;281;98340;-58
2023/04/05 09:16:55;;;;;;;7.10;4.20;;;;;;;3.69;67.90;101088.11;102249;281;119951;-54
2023/04/05 09:19:33;;;;;;;8.80;4.30;;;;;;;3.81;67.52;101089.38;102245;281;105705;-53
2023/04/05 09:22:08;;;;;;;8.00;4.50;;;;;;;3.92;66.48;101090.54;102199;281;114213;-54
2023/04/05 09:24:46;;;;;;;6.30;3.10;;;;;;;3.96;65.59;101095.42;102397;280;92170;-54
2023/04/05 09:27:21;;;;;;;7.20;3.40;;;;;;;3.94;65.56;101092.91;102404;280;98431;-53
2023/04/05 09:30:02;;;;;;;5.50;2.90;;;;;;;4.07;65.46;101090.70;102373;281;118199;-53
2023/04/05 09:32:46;;;;;;;6.60;3.90;;;;;;;4.23;65.27;101089.73;102380;280;104863;-52
2023/04/05 09:35:28;;;;;;;6.10;3.90;;;;;;;4.37;64.89;101090.77;102354;280;114292;-56
2023/04/05 09:38:06;;;;;;;8.30;4.60;;;;;;;4.59;64.79;101091.30;102395;280;93391;-57
2023/04/05 09:40:47;;;;;;;7.30;4.30;;;;;;;4.82;63.89;101090.19;102412;280;96401;-57
2023/04/05 09:43:43;;;;;;;8.00;4.40;;;;;;;4.87;63.65;101089.02;102378;280;120027;-58
2023/04/05 09:46:41;;;;;;;6.30;3.80;;;;;;;4.99;62.88;101086.48;102393;280;106253;-54
2023/04/05 09:49:37;;;;;;;9.30;4.60;;;;;;;5.15;62.77;101094.20;102375;280;114579;-55
2023/04/05 09:52:24;;;;;;;8.90;4.40;;;;;;;5.29;62.68;101086.45;102373;280;93310;-52
2023/04/05 09:55:06;;;;;;;8.50;4.40;;;;;;;5.42;61.82;101092.41;102366;280;97987;-53
2023/04/05 09:57:43;;;;;;;5.40;3.90;;;;;;;5.62;61.55;101086.41;102216;280;121301;-54
2023/04/05 10:00:23;;;;;;;7.80;4.20;;;;;;;5.75;60.57;101086.27;102413;280;105880;-54
2023/04/05 10:03:02;;;;;;;7.60;4.30;;;;;;;5.86;60.04;101082.55;102337;280;114616;-53
2023/04/05 10:05:43;;;;;;;7.20;4.20;;;;;;;6.02;59.93;101082.88;102374;281;93887;-59
2023/04/05 10:08:25;;;;;;;7.40;4.40;;;;;;;6.21;59.27;101082.02;102395;280;96593;-59
2023/04/05 10:11:12;;;;;;;6.90;3.90;;;;;;;6.33;58.84;101080.96;102337;280;119672;-59
2023/04/05 10:13:52;;;;;;;7.40;3.80;;;;;;;6.47;58.84;101077.50;102342;280;105993;-57
2023/04/05 10:16:32;;;;;;;9.60;3.80;;;;;;;6.74;58.34;101074.88;102398;280;114230;-59
2023/04/05 10:19:14;;;;;;;5.30;3.40;;;;;;;6.88;57.62;101073.01;102342;280;93693;-53
2023/04/05 10:22:00;;;;;;;5.10;3.00;;;;;;;6.96;56.76;101070.56;102370;280;98805;-58
2023/04/05 10:24:46;;;;;;;6.10;3.10;;;;;;;7.03;55.67;101066.48;102339;280;118660;-58
2023/04/05 10:27:31;;;;;;;5.50;3.90;;;;;;;7.18;56.05;101063.92;102389;280;105114;-54
2023/04/05 10:30:12;;;;;;;7.80;3.80;;;;;;;7.40;54.42;101063.86;102379;280;114317;-53
2023/04/05 10:33:02;;;;;;;7.30;3.80;;;;;;;7.43;54.74;101058.48;102390;280;93948;-53
2023/04/05 10:35:57;;;;;;;5.40;3.60;;;;;;;7.66;54.91;101058.54;102414;268;97787;-52
2023/04/05 10:38:49;;;;;;;7.10;4.10;;;;;;;8.21;55.18;101058.58;102371;280;119603;-58
2023/04/05 10:41:40;;;;;;;5.90;3.60;;;;;;;8.41;53.99;101058.52;102391;280;105921;-53
2023/04/05 10:44:21;;;;;;;6.80;3.60;;;;;;;8.71;54.00;101057.84;102384;280;113995;-54
2023/04/05 10:47:05;;;;;;;5.80;3.10;;;;;;;8.80;54.01;101056.63;102420;280;93298;-54
2023/04/05 10:49:47;;;;;;;8.00;3.80;;;;;;;8.84;52.95;101055.31;102368;280;97727;-54
2023/04/05 10:52:25;;;;;;;7.20;3.70;;;;;;;8.74;52.55;101056.47;102372;280;119423;-57
2023/04/05 10:55:03;;;;;;;5.30;3.60;;;;;;;8.53;50.79;101051.35;102372;280;105550;-57
2023/04/05 10:57:40;;;;;;;6.40;4.00;;;;;;;8.23;51.52;101049.46;102358;280;114271;-60
2023/04/05 11:00:18;;;;;;;9.70;3.90;;;;;;;8.17;51.16;101048.95;102392;280;94286;-57
2023/04/05 11:02:57;;;;;;;7.50;3.60;;;;;;;8.11;51.19;101044.93;102359;280;97238;-55
2023/04/05 11:05:38;;;;;;;4.60;3.20;;;;;;;8.16;51.03;101048.49;102285;269;120109;-59
2023/04/05 11:08:23;;;;;;;8.50;3.70;;;;;;;8.28;50.04;101046.89;102303;280;105435;-60
2023/04/05 11:11:09;;;;;;;5.60;3.80;;;;;;;8.31;49.68;101048.20;102268;280;114628;-53
2023/04/05 11:13:55;;;;;;;7.80;4.10;;;;;;;8.14;48.71;101046.38;102262;280;93162;-54
2023/04/05 11:16:53;;;;;;;6.70;3.60;;;;;;;8.02;49.08;101047.06;102312;280;98419;-59
2023/04/05 11:19:52;;;;;;;6.20;3.70;;;;;;;7.83;49.62;101044.42;102280;281;118275;-58
2023/04/05 11:22:40;;;;;;;6.50;3.80;;;;;;;7.65;49.23;101041.58;102321;281;103405;-59
2023/04/05 11:25:26;;;;;;;5.70;3.60;;;;;;;7.76;48.88;101042.67;102198;281;114250;-58
2023/04/05 11:28:05;;;;;;;7.50;3.90;;;;;;;7.85;49.21;101039.89;102280;281;93069;-60
2023/04/05 11:31:14;;;;;;;7.50;4.10;;;;;;;7.99;49.17;101040.61;102316;281;96918;-54
2023/04/05 11:34:09;;;;;;;6.40;3.90;;;;;;;7.65;49.31;101044.23;102290;280;118732;-53
2023/04/05 11:36:49;;;;;;;;;;;;;;;7.26;49.19;101045.20;102273;281;105764;-59
2023/04/05 11:39:31;;;;;;;7.10;3.50;;;;;;;7.13;48.57;101045.37;102238;280;114265;-59
2023/04/05 11:42:11;;;;;;;6.40;4.00;;;;;;;7.16;48.81;101044.73;102272;280;93582;-54
2023/04/05 11:44:57;;;;;;;9.00;4.40;;;;;;;7.23;49.08;101047.89;102572;278;97101;-54
2023/04/05 11:47:39;;;;;;;6.90;4.50;;;;;;;7.27;49.29;101049.61;102593;278;118055;-53
2023/04/05 11:50:16;;;;;;;7.80;4.40;;;;;;;7.22;49.05;101052.39;102574;274;104075;-58
2023/04/05 11:53:09;;;;;;;7.20;4.10;;;;;;;7.15;49.08;101050.08;102580;278;112694;-53
2023/04/05 11:55:50;;;;;;;8.30;4.70;;;;;;;7.10;48.62;101052.86;102530;278;92615;-59
2023/04/05 11:58:36;;;;;;;5.40;3.70;;;;;;;6.95;48.46;101055.63;102032;278;699342;-58
2023/04/05 12:01:15;;;;;;;7.80;3.90;;;;;;;6.82;48.54;101052.77;102569;278;119795;-54
2023/04/05 12:03:57;;;;;;;6.80;3.70;;;;;;;6.80;48.84;101052.66;102573;278;104730;-53
2023/04/05 12:06:33;;;;;;;7.30;3.80;;;;;;;6.91;48.81;101054.11;102590;278;113007;-60
2023/04/05 12:09:16;;;;;;;6.60;3.80;;;;;;;6.88;48.91;101057.97;102599;278;93595;-60
2023/04/05 12:11:55;;;;;;;7.10;3.90;;;;;;;6.71;48.81;101058.67;102545;278;97521;-55
2023/04/05 12:14:38;;;;;;;8.30;3.90;;;;;;;6.75;49.00;101055.80;102561;278;119868;-54
2023/04/05 12:17:37;;;;;;;6.40;4.40;;;;;;;6.87;48.73;101058.56;102524;278;104510;-54